sensor_id;sensor_type;location;lat;lon;timestamp;P1;durP1;ratioP1;P2;durP2;ratioP2
27802;SDS011;15182;48.174;11.562;2024-03-22T00:02:25;9.63;;;8.60;;
27802;SDS011;15182;48.174;11.562;2024-03-22T00:04:52;9.23;;;8.33;;
27802;SDS011;15182;48.174;11.562;2024-03-22T00:07:20;9.00;;;8.17;;
27802;SDS011;15182;48.174;11.562;2024-03-22T00:09:48;9.37;;;8.47;;
27802;SDS011;15182;48.174;11.562;2024-03-22T00:12:16;8.90;;;8.00;;
27802;SDS011;15182;48.174;11.562;2024-03-22T00:14:42;10.17;;;8.23;;
27802;SDS011;15182;48.174;11.562;2024-03-22T00:17:10;10.07;;;8.43;;
27802;SDS011;15182;48.174;11.562;2024-03-22T00:19:37;9.60;;;8.63;;
27802;SDS011;15182;48.174;11.562;2024-03-22T00:22:05;9.43;;;8.57;;
27802;SDS011;15182;48.174;11.562;2024-03-22T00:24:32;9.10;;;8.30;;
27802;SDS011;15182;48.174;11.562;2024-03-22T00:27:01;9.07;;;8.10;;
27802;SDS011;15182;48.174;11.562;2024-03-22T00:29:28;8.80;;;8.00;;
27802;SDS011;15182;48.174;11.562;2024-03-22T00:31:56;9.43;;;8.43;;
27802;SDS011;15182;48.174;11.562;2024-03-22T00:34:23;8.57;;;7.83;;
27802;SDS011;15182;48.174;11.562;2024-03-22T00:36:51;9.20;;;8.27;;
27802;SDS011;15182;48.174;11.562;2024-03-22T00:39:18;10.03;;;9.03;;
27802;SDS011;15182;48.174;11.562;2024-03-22T00:41:45;9.77;;;8.67;;
27802;SDS011;15182;48.174;11.562;2024-03-22T00:44:14;8.93;;;8.07;;
27802;SDS011;15182;48.174;11.562;2024-03-22T00:46:41;9.37;;;8.13;;
27802;SDS011;15182;48.174;11.562;2024-03-22T00:49:09;9.50;;;8.63;;
27802;SDS011;15182;48.174;11.562;2024-03-22T00:51:36;10.47;;;8.90;;
27802;SDS011;15182;48.174;11.562;2024-03-22T00:54:04;9.87;;;8.40;;
27802;SDS011;15182;48.174;11.562;2024-03-22T00:56:31;9.30;;;8.40;;
27802;SDS011;15182;48.174;11.562;2024-03-22T00:58:59;9.13;;;7.97;;
27802;SDS011;15182;48.174;11.562;2024-03-22T01:01:27;9.93;;;8.13;;
27802;SDS011;15182;48.174;11.562;2024-03-22T01:03:54;8.60;;;7.77;;
27802;SDS011;15182;48.174;11.562;2024-03-22T01:06:21;9.10;;;8.27;;
27802;SDS011;15182;48.174;11.562;2024-03-22T01:08:50;8.53;;;7.80;;
27802;SDS011;15182;48.174;11.562;2024-03-22T01:11:17;9.10;;;8.20;;
27802;SDS011;15182;48.174;11.562;2024-03-22T01:13:45;9.23;;;8.00;;
27802;SDS011;15182;48.174;11.562;2024-03-22T01:16:12;8.07;;;7.47;;
27802;SDS011;15182;48.174;11.562;2024-03-22T01:18:41;9.50;;;8.70;;
27802;SDS011;15182;48.174;11.562;2024-03-22T01:21:08;9.93;;;8.00;;
27802;SDS011;15182;48.174;11.562;2024-03-22T01:23:36;10.60;;;8.20;;
27802;SDS011;15182;48.174;11.562;2024-03-22T01:26:02;10.97;;;8.37;;
27802;SDS011;15182;48.174;11.562;2024-03-22T01:28:30;9.13;;;8.27;;
27802;SDS011;15182;48.174;11.562;2024-03-22T01:31:00;9.60;;;8.60;;
27802;SDS011;15182;48.174;11.562;2024-03-22T01:33:27;8.37;;;7.67;;
27802;SDS011;15182;48.174;11.562;2024-03-22T01:35:56;14.93;;;8.93;;
27802;SDS011;15182;48.174;11.562;2024-03-22T01:38:23;9.93;;;8.93;;
27802;SDS011;15182;48.174;11.562;2024-03-22T01:40:50;9.83;;;8.80;;
27802;SDS011;15182;48.174;11.562;2024-03-22T01:43:18;10.00;;;8.67;;
27802;SDS011;15182;48.174;11.562;2024-03-22T01:45:45;9.57;;;8.30;;
27802;SDS011;15182;48.174;11.562;2024-03-22T01:48:12;9.77;;;8.87;;
27802;SDS011;15182;48.174;11.562;2024-03-22T01:50:40;10.73;;;8.70;;
27802;SDS011;15182;48.174;11.562;2024-03-22T01:53:10;8.67;;;7.87;;
27802;SDS011;15182;48.174;11.562;2024-03-22T01:55:37;8.60;;;7.90;;
27802;SDS011;15182;48.174;11.562;2024-03-22T01:58:05;9.43;;;8.33;;
27802;SDS011;15182;48.174;11.562;2024-03-22T02:00:33;8.97;;;8.17;;
27802;SDS011;15182;48.174;11.562;2024-03-22T02:03:01;8.93;;;8.13;;
27802;SDS011;15182;48.174;11.562;2024-03-22T02:05:28;9.23;;;8.37;;
27802;SDS011;15182;48.174;11.562;2024-03-22T02:07:56;9.90;;;8.07;;
27802;SDS011;15182;48.174;11.562;2024-03-22T02:10:24;9.37;;;8.53;;
27802;SDS011;15182;48.174;11.562;2024-03-22T02:12:52;11.37;;;8.90;;
27802;SDS011;15182;48.174;11.562;2024-03-22T02:15:19;10.10;;;8.83;;
27802;SDS011;15182;48.174;11.562;2024-03-22T02:17:47;9.40;;;8.43;;
27802;SDS011;15182;48.174;11.562;2024-03-22T02:20:13;12.20;;;9.20;;
27802;SDS011;15182;48.174;11.562;2024-03-22T02:22:41;8.30;;;7.60;;
27802;SDS011;15182;48.174;11.562;2024-03-22T02:25:09;8.33;;;7.60;;
27802;SDS011;15182;48.174;11.562;2024-03-22T02:27:38;8.73;;;7.93;;
27802;SDS011;15182;48.174;11.562;2024-03-22T02:30:05;9.50;;;8.60;;
27802;SDS011;15182;48.174;11.562;2024-03-22T02:32:34;8.33;;;7.63;;
27802;SDS011;15182;48.174;11.562;2024-03-22T02:35:02;10.50;;;8.80;;
27802;SDS011;15182;48.174;11.562;2024-03-22T02:37:31;9.73;;;8.77;;
27802;SDS011;15182;48.174;11.562;2024-03-22T02:39:58;11.57;;;9.13;;
27802;SDS011;15182;48.174;11.562;2024-03-22T02:42:27;9.77;;;8.60;;
27802;SDS011;15182;48.174;11.562;2024-03-22T02:44:54;9.20;;;8.30;;
27802;SDS011;15182;48.174;11.562;2024-03-22T02:47:22;11.13;;;8.87;;
27802;SDS011;15182;48.174;11.562;2024-03-22T02:49:49;9.73;;;8.73;;
27802;SDS011;15182;48.174;11.562;2024-03-22T02:52:16;9.43;;;8.53;;
27802;SDS011;15182;48.174;11.562;2024-03-22T02:54:43;9.60;;;8.77;;
27802;SDS011;15182;48.174;11.562;2024-03-22T02:57:11;9.80;;;8.80;;
27802;SDS011;15182;48.174;11.562;2024-03-22T02:59:39;10.50;;;8.87;;
27802;SDS011;15182;48.174;11.562;2024-03-22T03:02:07;9.20;;;8.30;;
27802;SDS011;15182;48.174;11.562;2024-03-22T03:04:34;10.10;;;9.10;;
27802;SDS011;15182;48.174;11.562;2024-03-22T03:07:02;10.33;;;9.20;;
27802;SDS011;15182;48.174;11.562;2024-03-22T03:09:29;12.40;;;9.83;;
27802;SDS011;15182;48.174;11.562;2024-03-22T03:11:57;10.93;;;9.60;;
27802;SDS011;15182;48.174;11.562;2024-03-22T03:14:24;11.50;;;9.90;;
27802;SDS011;15182;48.174;11.562;2024-03-22T03:16:53;12.00;;;9.43;;
27802;SDS011;15182;48.174;11.562;2024-03-22T03:19:20;10.03;;;9.07;;
27802;SDS011;15182;48.174;11.562;2024-03-22T03:21:48;11.00;;;9.90;;
27802;SDS011;15182;48.174;11.562;2024-03-22T03:24:31;10.00;;;9.03;;
27802;SDS011;15182;48.174;11.562;2024-03-22T03:26:59;12.17;;;10.37;;
27802;SDS011;15182;48.174;11.562;2024-03-22T03:29:26;12.23;;;9.03;;
27802;SDS011;15182;48.174;11.562;2024-03-22T03:31:55;11.10;;;9.93;;
27802;SDS011;15182;48.174;11.562;2024-03-22T03:34:22;10.67;;;9.57;;
27802;SDS011;15182;48.174;11.562;2024-03-22T03:36:50;14.37;;;10.73;;
27802;SDS011;15182;48.174;11.562;2024-03-22T03:39:16;12.03;;;9.77;;
27802;SDS011;15182;48.174;11.562;2024-03-22T03:41:44;11.03;;;9.93;;
27802;SDS011;15182;48.174;11.562;2024-03-22T03:44:11;11.57;;;9.43;;
27802;SDS011;15182;48.174;11.562;2024-03-22T03:46:39;14.80;;;9.93;;
27802;SDS011;15182;48.174;11.562;2024-03-22T03:49:07;12.93;;;10.30;;
27802;SDS011;15182;48.174;11.562;2024-03-22T03:51:35;10.80;;;9.70;;
27802;SDS011;15182;48.174;11.562;2024-03-22T03:54:01;9.90;;;8.80;;
27802;SDS011;15182;48.174;11.562;2024-03-22T03:56:30;10.23;;;9.00;;
27802;SDS011;15182;48.174;11.562;2024-03-22T03:58:56;10.40;;;9.37;;
27802;SDS011;15182;48.174;11.562;2024-03-22T04:01:24;10.67;;;8.80;;
27802;SDS011;15182;48.174;11.562;2024-03-22T04:03:51;13.23;;;10.17;;
27802;SDS011;15182;48.174;11.562;2024-03-22T04:06:20;11.00;;;9.37;;
27802;SDS011;15182;48.174;11.562;2024-03-22T04:08:47;10.37;;;9.03;;
27802;SDS011;15182;48.174;11.562;2024-03-22T04:11:15;11.43;;;9.43;;
27802;SDS011;15182;48.174;11.562;2024-03-22T04:13:41;10.97;;;9.47;;
27802;SDS011;15182;48.174;11.562;2024-03-22T04:16:09;10.87;;;9.47;;
27802;SDS011;15182;48.174;11.562;2024-03-22T04:18:36;9.77;;;8.87;;
27802;SDS011;15182;48.174;11.562;2024-03-22T04:21:04;10.23;;;9.17;;
27802;SDS011;15182;48.174;11.562;2024-03-22T04:23:33;10.20;;;9.20;;
27802;SDS011;15182;48.174;11.562;2024-03-22T04:26:01;9.53;;;8.50;;
27802;SDS011;15182;48.174;11.562;2024-03-22T04:28:28;13.70;;;9.03;;
27802;SDS011;15182;48.174;11.562;2024-03-22T04:30:58;9.97;;;8.57;;
27802;SDS011;15182;48.174;11.562;2024-03-22T04:33:26;10.83;;;9.43;;
27802;SDS011;15182;48.174;11.562;2024-03-22T04:35:55;10.70;;;9.43;;
27802;SDS011;15182;48.174;11.562;2024-03-22T04:38:23;10.10;;;8.93;;
27802;SDS011;15182;48.174;11.562;2024-03-22T04:40:54;10.13;;;9.03;;
27802;SDS011;15182;48.174;11.562;2024-03-22T04:43:22;10.43;;;9.43;;
27802;SDS011;15182;48.174;11.562;2024-03-22T04:45:50;13.03;;;9.47;;
27802;SDS011;15182;48.174;11.562;2024-03-22T04:48:19;9.53;;;8.47;;
27802;SDS011;15182;48.174;11.562;2024-03-22T04:50:47;11.70;;;10.27;;
27802;SDS011;15182;48.174;11.562;2024-03-22T04:53:16;12.07;;;9.60;;
27802;SDS011;15182;48.174;11.562;2024-03-22T04:55:43;11.03;;;9.93;;
27802;SDS011;15182;48.174;11.562;2024-03-22T04:58:14;13.80;;;10.17;;
27802;SDS011;15182;48.174;11.562;2024-03-22T05:00:42;9.40;;;8.40;;
27802;SDS011;15182;48.174;11.562;2024-03-22T05:03:10;10.63;;;9.30;;
27802;SDS011;15182;48.174;11.562;2024-03-22T05:05:37;12.03;;;9.93;;
27802;SDS011;15182;48.174;11.562;2024-03-22T05:08:07;10.23;;;9.07;;
27802;SDS011;15182;48.174;11.562;2024-03-22T05:10:34;10.50;;;9.30;;
27802;SDS011;15182;48.174;11.562;2024-03-22T05:13:03;10.90;;;9.40;;
27802;SDS011;15182;48.174;11.562;2024-03-22T05:15:31;10.00;;;8.90;;
27802;SDS011;15182;48.174;11.562;2024-03-22T05:17:59;11.00;;;9.90;;
27802;SDS011;15182;48.174;11.562;2024-03-22T05:20:26;10.73;;;8.90;;
27802;SDS011;15182;48.174;11.562;2024-03-22T05:22:54;14.03;;;9.77;;
27802;SDS011;15182;48.174;11.562;2024-03-22T05:25:21;11.00;;;9.03;;
27802;SDS011;15182;48.174;11.562;2024-03-22T05:27:49;10.63;;;9.07;;
27802;SDS011;15182;48.174;11.562;2024-03-22T05:30:16;9.73;;;8.83;;
27802;SDS011;15182;48.174;11.562;2024-03-22T05:32:45;9.50;;;8.60;;
27802;SDS011;15182;48.174;11.562;2024-03-22T05:35:12;10.47;;;9.47;;
27802;SDS011;15182;48.174;11.562;2024-03-22T05:37:40;9.63;;;8.73;;
27802;SDS011;15182;48.174;11.562;2024-03-22T05:40:07;10.47;;;9.37;;
27802;SDS011;15182;48.174;11.562;2024-03-22T05:42:36;9.87;;;8.60;;
27802;SDS011;15182;48.174;11.562;2024-03-22T05:45:03;9.53;;;8.13;;
27802;SDS011;15182;48.174;11.562;2024-03-22T05:47:32;12.10;;;8.83;;
27802;SDS011;15182;48.174;11.562;2024-03-22T05:50:00;9.00;;;8.07;;
27802;SDS011;15182;48.174;11.562;2024-03-22T05:52:28;9.77;;;8.83;;
27802;SDS011;15182;48.174;11.562;2024-03-22T05:54:55;9.80;;;8.80;;
27802;SDS011;15182;48.174;11.562;2024-03-22T05:57:23;9.83;;;8.80;;
27802;SDS011;15182;48.174;11.562;2024-03-22T05:59:50;9.10;;;8.20;;
27802;SDS011;15182;48.174;11.562;2024-03-22T06:02:19;9.43;;;8.53;;
27802;SDS011;15182;48.174;11.562;2024-03-22T06:04:46;9.57;;;8.67;;
27802;SDS011;15182;48.174;11.562;2024-03-22T06:07:15;9.17;;;8.17;;
27802;SDS011;15182;48.174;11.562;2024-03-22T06:09:43;9.27;;;8.37;;
27802;SDS011;15182;48.174;11.562;2024-03-22T06:12:12;8.73;;;7.97;;
27802;SDS011;15182;48.174;11.562;2024-03-22T06:14:39;10.00;;;8.40;;
27802;SDS011;15182;48.174;11.562;2024-03-22T06:17:08;10.00;;;7.80;;
27802;SDS011;15182;48.174;11.562;2024-03-22T06:19:35;8.83;;;8.03;;
27802;SDS011;15182;48.174;11.562;2024-03-22T06:22:03;8.63;;;7.83;;
27802;SDS011;15182;48.174;11.562;2024-03-22T06:24:31;8.80;;;8.00;;
27802;SDS011;15182;48.174;11.562;2024-03-22T06:26:59;9.10;;;8.20;;
27802;SDS011;15182;48.174;11.562;2024-03-22T06:29:26;8.87;;;7.97;;
27802;SDS011;15182;48.174;11.562;2024-03-22T06:31:54;8.30;;;7.63;;
27802;SDS011;15182;48.174;11.562;2024-03-22T06:34:20;7.40;;;6.87;;
27802;SDS011;15182;48.174;11.562;2024-03-22T06:36:48;15.47;;;7.83;;
27802;SDS011;15182;48.174;11.562;2024-03-22T06:39:16;8.77;;;8.07;;
27802;SDS011;15182;48.174;11.562;2024-03-22T06:41:47;9.53;;;8.57;;
27802;SDS011;15182;48.174;11.562;2024-03-22T06:44:13;12.50;;;8.07;;
27802;SDS011;15182;48.174;11.562;2024-03-22T06:46:41;8.27;;;7.57;;
27802;SDS011;15182;48.174;11.562;2024-03-22T06:49:08;11.37;;;8.37;;
27802;SDS011;15182;48.174;11.562;2024-03-22T06:51:36;9.20;;;8.33;;
27802;SDS011;15182;48.174;11.562;2024-03-22T06:54:03;8.50;;;7.77;;
27802;SDS011;15182;48.174;11.562;2024-03-22T06:56:31;9.07;;;8.27;;
27802;SDS011;15182;48.174;11.562;2024-03-22T06:58:59;8.33;;;7.50;;
27802;SDS011;15182;48.174;11.562;2024-03-22T07:01:27;10.67;;;7.20;;
27802;SDS011;15182;48.174;11.562;2024-03-22T07:03:54;9.07;;;7.37;;
27802;SDS011;15182;48.174;11.562;2024-03-22T07:06:21;8.43;;;7.77;;
27802;SDS011;15182;48.174;11.562;2024-03-22T07:08:48;8.17;;;7.47;;
27802;SDS011;15182;48.174;11.562;2024-03-22T07:11:16;8.10;;;7.30;;
27802;SDS011;15182;48.174;11.562;2024-03-22T07:13:43;7.83;;;7.23;;
27802;SDS011;15182;48.174;11.562;2024-03-22T07:16:12;7.80;;;7.10;;
27802;SDS011;15182;48.174;11.562;2024-03-22T07:18:39;7.47;;;6.97;;
27802;SDS011;15182;48.174;11.562;2024-03-22T07:21:07;11.40;;;7.70;;
27802;SDS011;15182;48.174;11.562;2024-03-22T07:23:33;7.53;;;6.97;;
27802;SDS011;15182;48.174;11.562;2024-03-22T07:26:01;8.40;;;7.63;;
27802;SDS011;15182;48.174;11.562;2024-03-22T07:28:28;7.97;;;7.07;;
27802;SDS011;15182;48.174;11.562;2024-03-22T07:30:56;8.73;;;7.20;;
27802;SDS011;15182;48.174;11.562;2024-03-22T07:33:24;8.80;;;7.97;;
27802;SDS011;15182;48.174;11.562;2024-03-22T07:35:52;7.83;;;7.07;;
27802;SDS011;15182;48.174;11.562;2024-03-22T07:38:20;7.47;;;6.83;;
27802;SDS011;15182;48.174;11.562;2024-03-22T07:40:48;8.43;;;7.63;;
27802;SDS011;15182;48.174;11.562;2024-03-22T07:43:15;8.37;;;7.67;;
27802;SDS011;15182;48.174;11.562;2024-03-22T07:45:42;6.97;;;6.47;;
27802;SDS011;15182;48.174;11.562;2024-03-22T07:48:09;8.07;;;6.80;;
27802;SDS011;15182;48.174;11.562;2024-03-22T07:50:38;7.17;;;6.60;;
27802;SDS011;15182;48.174;11.562;2024-03-22T07:53:05;8.17;;;7.37;;
27802;SDS011;15182;48.174;11.562;2024-03-22T07:55:34;7.10;;;6.67;;
27802;SDS011;15182;48.174;11.562;2024-03-22T07:58:00;10.33;;;7.37;;
27802;SDS011;15182;48.174;11.562;2024-03-22T08:00:28;7.87;;;7.13;;
27802;SDS011;15182;48.174;11.562;2024-03-22T08:02:55;7.73;;;7.13;;
27802;SDS011;15182;48.174;11.562;2024-03-22T08:05:23;8.73;;;7.87;;
27802;SDS011;15182;48.174;11.562;2024-03-22T08:07:51;7.93;;;7.00;;
27802;SDS011;15182;48.174;11.562;2024-03-22T08:10:19;7.90;;;7.20;;
27802;SDS011;15182;48.174;11.562;2024-03-22T08:12:46;9.50;;;6.57;;
27802;SDS011;15182;48.174;11.562;2024-03-22T08:15:14;6.87;;;6.30;;
27802;SDS011;15182;48.174;11.562;2024-03-22T08:17:40;8.10;;;7.37;;
27802;SDS011;15182;48.174;11.562;2024-03-22T08:20:08;8.00;;;7.20;;
27802;SDS011;15182;48.174;11.562;2024-03-22T08:22:36;7.33;;;6.73;;
27802;SDS011;15182;48.174;11.562;2024-03-22T08:25:05;7.57;;;6.87;;
27802;SDS011;15182;48.174;11.562;2024-03-22T08:27:33;7.60;;;6.90;;
27802;SDS011;15182;48.174;11.562;2024-03-22T08:30:01;6.70;;;6.03;;
27802;SDS011;15182;48.174;11.562;2024-03-22T08:32:29;7.17;;;6.60;;
27802;SDS011;15182;48.174;11.562;2024-03-22T08:34:57;6.47;;;6.07;;
27802;SDS011;15182;48.174;11.562;2024-03-22T08:37:24;7.00;;;6.57;;
27802;SDS011;15182;48.174;11.562;2024-03-22T08:39:52;7.00;;;6.47;;
27802;SDS011;15182;48.174;11.562;2024-03-22T08:42:20;6.00;;;5.70;;
27802;SDS011;15182;48.174;11.562;2024-03-22T08:44:48;7.37;;;6.33;;
27802;SDS011;15182;48.174;11.562;2024-03-22T08:47:15;6.97;;;6.37;;
27802;SDS011;15182;48.174;11.562;2024-03-22T08:49:43;6.80;;;6.20;;
27802;SDS011;15182;48.174;11.562;2024-03-22T08:52:11;8.90;;;6.37;;
27802;SDS011;15182;48.174;11.562;2024-03-22T08:54:39;6.73;;;6.03;;
27802;SDS011;15182;48.174;11.562;2024-03-22T08:57:06;6.97;;;6.47;;
27802;SDS011;15182;48.174;11.562;2024-03-22T08:59:35;7.50;;;5.80;;
27802;SDS011;15182;48.174;11.562;2024-03-22T09:02:04;6.10;;;5.57;;
27802;SDS011;15182;48.174;11.562;2024-03-22T09:04:32;6.63;;;5.93;;
27802;SDS011;15182;48.174;11.562;2024-03-22T09:06:59;8.00;;;5.80;;
27802;SDS011;15182;48.174;11.562;2024-03-22T09:09:26;6.27;;;5.87;;
27802;SDS011;15182;48.174;11.562;2024-03-22T09:11:53;6.20;;;5.70;;
27802;SDS011;15182;48.174;11.562;2024-03-22T09:14:21;7.20;;;6.60;;
27802;SDS011;15182;48.174;11.562;2024-03-22T09:16:49;7.77;;;5.70;;
27802;SDS011;15182;48.174;11.562;2024-03-22T09:19:17;11.53;;;5.70;;
27802;SDS011;15182;48.174;11.562;2024-03-22T09:21:44;6.33;;;5.63;;
27802;SDS011;15182;48.174;11.562;2024-03-22T09:24:11;7.10;;;5.63;;
27802;SDS011;15182;48.174;11.562;2024-03-22T09:26:38;5.30;;;5.00;;
27802;SDS011;15182;48.174;11.562;2024-03-22T09:29:06;5.43;;;5.07;;
27802;SDS011;15182;48.174;11.562;2024-03-22T09:31:33;5.73;;;5.23;;
27802;SDS011;15182;48.174;11.562;2024-03-22T09:34:02;5.30;;;5.00;;
27802;SDS011;15182;48.174;11.562;2024-03-22T09:36:29;5.10;;;4.83;;
27802;SDS011;15182;48.174;11.562;2024-03-22T09:39:01;5.17;;;4.73;;
27802;SDS011;15182;48.174;11.562;2024-03-22T09:41:28;5.80;;;5.27;;
27802;SDS011;15182;48.174;11.562;2024-03-22T09:43:59;5.63;;;4.63;;
27802;SDS011;15182;48.174;11.562;2024-03-22T09:46:29;5.30;;;4.97;;
27802;SDS011;15182;48.174;11.562;2024-03-22T09:48:57;5.67;;;5.20;;
27802;SDS011;15182;48.174;11.562;2024-03-22T09:51:27;5.00;;;4.60;;
27802;SDS011;15182;48.174;11.562;2024-03-22T09:53:56;5.33;;;4.77;;
27802;SDS011;15182;48.174;11.562;2024-03-22T09:56:23;4.50;;;4.17;;
27802;SDS011;15182;48.174;11.562;2024-03-22T09:58:53;4.20;;;3.80;;
27802;SDS011;15182;48.174;11.562;2024-03-22T10:01:20;4.97;;;4.67;;
27802;SDS011;15182;48.174;11.562;2024-03-22T10:03:48;4.57;;;4.23;;
27802;SDS011;15182;48.174;11.562;2024-03-22T10:06:17;4.33;;;4.20;;
27802;SDS011;15182;48.174;11.562;2024-03-22T10:08:46;5.20;;;4.63;;
27802;SDS011;15182;48.174;11.562;2024-03-22T10:11:13;6.90;;;4.30;;
27802;SDS011;15182;48.174;11.562;2024-03-22T10:13:41;4.17;;;3.93;;
27802;SDS011;15182;48.174;11.562;2024-03-22T10:16:08;4.40;;;4.10;;
27802;SDS011;15182;48.174;11.562;2024-03-22T10:18:36;4.53;;;4.30;;
27802;SDS011;15182;48.174;11.562;2024-03-22T10:21:03;4.10;;;3.90;;
27802;SDS011;15182;48.174;11.562;2024-03-22T10:23:32;4.00;;;3.90;;
27802;SDS011;15182;48.174;11.562;2024-03-22T10:26:00;8.15;;;4.13;;
27802;SDS011;15182;48.174;11.562;2024-03-22T10:28:28;4.25;;;4.05;;
27802;SDS011;15182;48.174;11.562;2024-03-22T10:30:55;6.22;;;4.75;;
27802;SDS011;15182;48.174;11.562;2024-03-22T10:33:23;3.90;;;3.80;;
27802;SDS011;15182;48.174;11.562;2024-03-22T10:35:50;4.20;;;4.00;;
27802;SDS011;15182;48.174;11.562;2024-03-22T10:38:20;4.18;;;3.90;;
27802;SDS011;15182;48.174;11.562;2024-03-22T10:40:49;3.72;;;3.63;;
27802;SDS011;15182;48.174;11.562;2024-03-22T10:43:18;3.80;;;3.70;;
27802;SDS011;15182;48.174;11.562;2024-03-22T10:45:45;4.38;;;3.95;;
27802;SDS011;15182;48.174;11.562;2024-03-22T10:48:17;5.35;;;3.75;;
27802;SDS011;15182;48.174;11.562;2024-03-22T10:50:46;5.63;;;4.20;;
27802;SDS011;15182;48.174;11.562;2024-03-22T10:53:15;4.78;;;4.00;;
27802;SDS011;15182;48.174;11.562;2024-03-22T10:55:50;3.63;;;3.50;;
27802;SDS011;15182;48.174;11.562;2024-03-22T10:58:21;8.02;;;4.03;;
27802;SDS011;15182;48.174;11.562;2024-03-22T11:00:51;3.60;;;3.45;;
27802;SDS011;15182;48.174;11.562;2024-03-22T11:03:19;3.58;;;3.45;;
27802;SDS011;15182;48.174;11.562;2024-03-22T11:05:49;3.75;;;3.55;;
27802;SDS011;15182;48.174;11.562;2024-03-22T11:08:23;3.67;;;3.42;;
27802;SDS011;15182;48.174;11.562;2024-03-22T11:10:52;3.65;;;3.55;;
27802;SDS011;15182;48.174;11.562;2024-03-22T11:13:22;3.28;;;3.17;;
27802;SDS011;15182;48.174;11.562;2024-03-22T11:15:50;4.38;;;3.88;;
27802;SDS011;15182;48.174;11.562;2024-03-22T11:18:17;3.60;;;3.40;;
27802;SDS011;15182;48.174;11.562;2024-03-22T11:20:45;3.42;;;3.33;;
27802;SDS011;15182;48.174;11.562;2024-03-22T11:23:13;3.70;;;3.45;;
27802;SDS011;15182;48.174;11.562;2024-03-22T11:25:41;4.13;;;3.83;;
27802;SDS011;15182;48.174;11.562;2024-03-22T11:28:07;3.47;;;3.35;;
27802;SDS011;15182;48.174;11.562;2024-03-22T11:30:37;3.50;;;3.33;;
27802;SDS011;15182;48.174;11.562;2024-03-22T11:33:04;3.50;;;3.30;;
27802;SDS011;15182;48.174;11.562;2024-03-22T11:35:33;3.53;;;3.42;;
27802;SDS011;15182;48.174;11.562;2024-03-22T11:38:00;3.33;;;3.22;;
27802;SDS011;15182;48.174;11.562;2024-03-22T11:40:30;5.20;;;3.40;;
27802;SDS011;15182;48.174;11.562;2024-03-22T11:42:59;3.20;;;3.10;;
27802;SDS011;15182;48.174;11.562;2024-03-22T11:45:28;4.13;;;3.65;;
27802;SDS011;15182;48.174;11.562;2024-03-22T11:48:01;3.33;;;3.17;;
27802;SDS011;15182;48.174;11.562;2024-03-22T11:50:29;3.60;;;3.45;;
27802;SDS011;15182;48.174;11.562;2024-03-22T11:52:56;3.60;;;3.50;;
27802;SDS011;15182;48.174;11.562;2024-03-22T11:55:26;3.75;;;3.55;;
27802;SDS011;15182;48.174;11.562;2024-03-22T11:57:53;3.65;;;3.55;;
27802;SDS011;15182;48.174;11.562;2024-03-22T12:00:24;3.90;;;3.80;;
27802;SDS011;15182;48.174;11.562;2024-03-22T12:02:52;4.18;;;3.75;;
27802;SDS011;15182;48.174;11.562;2024-03-22T12:05:23;3.75;;;3.53;;
27802;SDS011;15182;48.174;11.562;2024-03-22T12:07:51;3.15;;;3.08;;
27802;SDS011;15182;48.174;11.562;2024-03-22T12:10:19;3.40;;;3.20;;
27802;SDS011;15182;48.174;11.562;2024-03-22T12:12:46;5.30;;;3.70;;
27802;SDS011;15182;48.174;11.562;2024-03-22T12:15:13;4.40;;;3.67;;
27802;SDS011;15182;48.174;11.562;2024-03-22T12:17:40;5.13;;;3.72;;
27802;SDS011;15182;48.174;11.562;2024-03-22T12:20:09;3.28;;;3.05;;
27802;SDS011;15182;48.174;11.562;2024-03-22T12:22:37;3.40;;;3.30;;
27802;SDS011;15182;48.174;11.562;2024-03-22T12:25:06;3.70;;;3.50;;
27802;SDS011;15182;48.174;11.562;2024-03-22T12:27:35;3.63;;;3.42;;
27802;SDS011;15182;48.174;11.562;2024-03-22T12:30:03;4.50;;;4.07;;
27802;SDS011;15182;48.174;11.562;2024-03-22T12:32:32;4.80;;;3.38;;
27802;SDS011;15182;48.174;11.562;2024-03-22T12:35:00;3.83;;;3.63;;
27802;SDS011;15182;48.174;11.562;2024-03-22T12:37:27;3.40;;;3.28;;
27802;SDS011;15182;48.174;11.562;2024-03-22T12:39:57;3.70;;;3.40;;
27802;SDS011;15182;48.174;11.562;2024-03-22T12:42:24;4.07;;;3.67;;
27802;SDS011;15182;48.174;11.562;2024-03-22T12:44:52;4.00;;;3.65;;
27802;SDS011;15182;48.174;11.562;2024-03-22T12:47:18;3.17;;;3.08;;
27802;SDS011;15182;48.174;11.562;2024-03-22T12:49:46;3.53;;;3.35;;
27802;SDS011;15182;48.174;11.562;2024-03-22T12:52:13;3.47;;;3.35;;
27802;SDS011;15182;48.174;11.562;2024-03-22T12:54:41;3.25;;;2.95;;
27802;SDS011;15182;48.174;11.562;2024-03-22T12:57:09;3.92;;;3.60;;
27802;SDS011;15182;48.174;11.562;2024-03-22T12:59:37;3.65;;;3.40;;
27802;SDS011;15182;48.174;11.562;2024-03-22T13:02:04;4.05;;;3.47;;
27802;SDS011;15182;48.174;11.562;2024-03-22T13:04:32;3.78;;;3.58;;
27802;SDS011;15182;48.174;11.562;2024-03-22T13:06:58;3.55;;;3.45;;
27802;SDS011;15182;48.174;11.562;2024-03-22T13:09:26;3.35;;;3.15;;
27802;SDS011;15182;48.174;11.562;2024-03-22T13:11:53;3.70;;;3.40;;
27802;SDS011;15182;48.174;11.562;2024-03-22T13:14:22;3.10;;;3.00;;
27802;SDS011;15182;48.174;11.562;2024-03-22T13:16:49;3.25;;;3.15;;
27802;SDS011;15182;48.174;11.562;2024-03-22T13:19:17;3.50;;;3.25;;
27802;SDS011;15182;48.174;11.562;2024-03-22T13:21:44;3.53;;;3.22;;
27802;SDS011;15182;48.174;11.562;2024-03-22T13:24:14;3.28;;;3.13;;
27802;SDS011;15182;48.174;11.562;2024-03-22T13:26:41;3.38;;;3.15;;
27802;SDS011;15182;48.174;11.562;2024-03-22T13:29:09;6.00;;;3.08;;
27802;SDS011;15182;48.174;11.562;2024-03-22T13:31:37;2.70;;;2.55;;
27802;SDS011;15182;48.174;11.562;2024-03-22T13:34:05;3.22;;;3.05;;
27802;SDS011;15182;48.174;11.562;2024-03-22T13:36:32;2.72;;;2.72;;
27802;SDS011;15182;48.174;11.562;2024-03-22T13:39:02;3.00;;;2.90;;
27802;SDS011;15182;48.174;11.562;2024-03-22T13:41:29;3.10;;;2.90;;
27802;SDS011;15182;48.174;11.562;2024-03-22T13:43:57;2.97;;;2.78;;
27802;SDS011;15182;48.174;11.562;2024-03-22T13:46:24;4.47;;;2.92;;
27802;SDS011;15182;48.174;11.562;2024-03-22T13:48:53;3.28;;;3.00;;
27802;SDS011;15182;48.174;11.562;2024-03-22T13:51:20;2.97;;;2.88;;
27802;SDS011;15182;48.174;11.562;2024-03-22T13:53:50;3.20;;;3.00;;
27802;SDS011;15182;48.174;11.562;2024-03-22T13:56:16;3.10;;;3.00;;
27802;SDS011;15182;48.174;11.562;2024-03-22T13:58:44;2.78;;;2.67;;
27802;SDS011;15182;48.174;11.562;2024-03-22T14:01:11;2.65;;;2.65;;
27802;SDS011;15182;48.174;11.562;2024-03-22T14:03:39;3.90;;;2.95;;
27802;SDS011;15182;48.174;11.562;2024-03-22T14:06:07;3.10;;;3.00;;
27802;SDS011;15182;48.174;11.562;2024-03-22T14:08:35;3.17;;;2.85;;
27802;SDS011;15182;48.174;11.562;2024-03-22T14:11:02;3.22;;;3.05;;
27802;SDS011;15182;48.174;11.562;2024-03-22T14:13:31;2.83;;;2.72;;
27802;SDS011;15182;48.174;11.562;2024-03-22T14:15:57;2.75;;;2.63;;
27802;SDS011;15182;48.174;11.562;2024-03-22T14:18:25;2.60;;;2.50;;
27802;SDS011;15182;48.174;11.562;2024-03-22T14:20:52;2.63;;;2.50;;
27802;SDS011;15182;48.174;11.562;2024-03-22T14:23:21;2.58;;;2.47;;
27802;SDS011;15182;48.174;11.562;2024-03-22T14:25:48;2.95;;;2.72;;
27802;SDS011;15182;48.174;11.562;2024-03-22T14:28:16;2.25;;;2.10;;
27802;SDS011;15182;48.174;11.562;2024-03-22T14:30:43;2.40;;;2.30;;
27802;SDS011;15182;48.174;11.562;2024-03-22T14:33:10;2.65;;;2.47;;
27802;SDS011;15182;48.174;11.562;2024-03-22T14:35:37;2.58;;;2.42;;